Benson, Nebraska
Current Conditions -  °F | °C
As of 1:52 PM on Tuesday 21 Oct 2014 (Local Time) from KOMA Reporting Station
Clear Clear  
Wind Chill: 72°   Ceiling: Unl
Heat Index: 72°   Visibility: 10mi
Dew Point: 40°   Wind: 10mph
Humidity: 31%   Direction: 180°S
Pressure: 30.07"   Gusts: NA
Location:  41.2947°N, 96.0008°W
Report Text: KOMA 211852Z 18009KT 10SM CLR 22/04 A3007 RMK AO2 SLP181 T02220044
Loading
Personal Weather Stations






























Interactive Weather Map
Tropical Storm Tracking
New forecast layout! Learn more

10-Day Weather Forecast

Advertisements
Track Severe Weather on mobile